sensor_id;sensor_type;location;lat;lon;timestamp;temperature;humidity
50548;DHT22;38013;48.810;8.818;2022-12-26T00:00:45;11.30;69.90
50548;DHT22;38013;48.810;8.818;2022-12-26T00:03:13;11.40;70.00
50548;DHT22;38013;48.810;8.818;2022-12-26T00:05:40;11.30;70.00
50548;DHT22;38013;48.810;8.818;2022-12-26T00:08:07;11.30;70.10
50548;DHT22;38013;48.810;8.818;2022-12-26T00:10:34;11.20;70.10
50548;DHT22;38013;48.810;8.818;2022-12-26T00:13:01;11.20;70.30
50548;DHT22;38013;48.810;8.818;2022-12-26T00:15:47;11.20;70.40
50548;DHT22;38013;48.810;8.818;2022-12-26T00:18:16;11.20;70.40
50548;DHT22;38013;48.810;8.818;2022-12-26T00:20:43;11.10;70.50
50548;DHT22;38013;48.810;8.818;2022-12-26T00:23:09;11.10;70.70
50548;DHT22;38013;48.810;8.818;2022-12-26T00:25:36;11.10;70.80
50548;DHT22;38013;48.810;8.818;2022-12-26T00:28:03;11.10;70.80
50548;DHT22;38013;48.810;8.818;2022-12-26T00:30:30;11.10;70.80
50548;DHT22;38013;48.810;8.818;2022-12-26T00:32:57;11.10;70.90
50548;DHT22;38013;48.810;8.818;2022-12-26T00:35:24;11.00;71.00
50548;DHT22;38013;48.810;8.818;2022-12-26T00:37:50;11.00;71.70
50548;DHT22;38013;48.810;8.818;2022-12-26T00:40:17;11.00;71.20
50548;DHT22;38013;48.810;8.818;2022-12-26T00:42:44;11.00;71.30
50548;DHT22;38013;48.810;8.818;2022-12-26T00:45:11;11.00;71.40
50548;DHT22;38013;48.810;8.818;2022-12-26T00:47:38;11.00;71.40
50548;DHT22;38013;48.810;8.818;2022-12-26T00:50:05;11.00;71.40
50548;DHT22;38013;48.810;8.818;2022-12-26T00:52:41;11.00;71.50
50548;DHT22;38013;48.810;8.818;2022-12-26T00:55:08;11.00;71.50
50548;DHT22;38013;48.810;8.818;2022-12-26T00:57:35;11.10;71.60
50548;DHT22;38013;48.810;8.818;2022-12-26T01:00:04;11.00;71.50
50548;DHT22;38013;48.810;8.818;2022-12-26T01:02:31;11.10;72.20
50548;DHT22;38013;48.810;8.818;2022-12-26T01:05:07;11.00;71.50
50548;DHT22;38013;48.810;8.818;2022-12-26T01:07:36;11.00;71.40
50548;DHT22;38013;48.810;8.818;2022-12-26T01:10:24;11.00;71.40
50548;DHT22;38013;48.810;8.818;2022-12-26T01:12:50;11.00;71.40
50548;DHT22;38013;48.810;8.818;2022-12-26T01:15:17;11.00;71.40
50548;DHT22;38013;48.810;8.818;2022-12-26T01:17:45;11.00;71.40
50548;DHT22;38013;48.810;8.818;2022-12-26T01:20:11;11.10;71.50
50548;DHT22;38013;48.810;8.818;2022-12-26T01:22:38;11.00;71.50
50548;DHT22;38013;48.810;8.818;2022-12-26T01:25:06;11.00;71.40
50548;DHT22;38013;48.810;8.818;2022-12-26T01:27:33;11.00;72.10
50548;DHT22;38013;48.810;8.818;2022-12-26T01:30:00;11.00;71.50
50548;DHT22;38013;48.810;8.818;2022-12-26T01:32:26;11.00;71.50
50548;DHT22;38013;48.810;8.818;2022-12-26T01:34:53;11.10;71.60
50548;DHT22;38013;48.810;8.818;2022-12-26T01:37:21;11.00;71.60
50548;DHT22;38013;48.810;8.818;2022-12-26T01:39:50;11.00;71.70
50548;DHT22;38013;48.810;8.818;2022-12-26T01:42:22;11.00;71.80
50548;DHT22;38013;48.810;8.818;2022-12-26T01:45:26;11.00;72.20
50548;DHT22;38013;48.810;8.818;2022-12-26T01:48:02;11.00;72.10
50548;DHT22;38013;48.810;8.818;2022-12-26T01:50:55;11.00;71.90
50548;DHT22;38013;48.810;8.818;2022-12-26T01:53:28;11.00;71.90
50548;DHT22;38013;48.810;8.818;2022-12-26T01:56:01;11.10;71.90
50548;DHT22;38013;48.810;8.818;2022-12-26T01:58:35;11.00;71.90
50548;DHT22;38013;48.810;8.818;2022-12-26T02:01:05;11.00;71.90
50548;DHT22;38013;48.810;8.818;2022-12-26T02:03:35;11.00;71.80
50548;DHT22;38013;48.810;8.818;2022-12-26T02:06:21;11.00;71.90
50548;DHT22;38013;48.810;8.818;2022-12-26T02:08:48;11.00;71.80
50548;DHT22;38013;48.810;8.818;2022-12-26T02:11:34;11.00;71.90
50548;DHT22;38013;48.810;8.818;2022-12-26T02:14:07;11.00;72.00
50548;DHT22;38013;48.810;8.818;2022-12-26T02:16:35;11.00;72.00
50548;DHT22;38013;48.810;8.818;2022-12-26T02:19:11;11.00;72.00
50548;DHT22;38013;48.810;8.818;2022-12-26T02:25:19;10.90;72.40
50548;DHT22;38013;48.810;8.818;2022-12-26T02:31:12;10.90;72.40
50548;DHT22;38013;48.810;8.818;2022-12-26T02:39:14;10.90;72.50
50548;DHT22;38013;48.810;8.818;2022-12-26T02:48:21;10.80;72.60
50548;DHT22;38013;48.810;8.818;2022-12-26T02:54:35;10.90;72.50
50548;DHT22;38013;48.810;8.818;2022-12-26T02:57:29;10.90;72.70
50548;DHT22;38013;48.810;8.818;2022-12-26T03:00:26;10.90;72.50
50548;DHT22;38013;48.810;8.818;2022-12-26T03:03:26;10.90;72.30
50548;DHT22;38013;48.810;8.818;2022-12-26T03:06:17;10.90;72.50
50548;DHT22;38013;48.810;8.818;2022-12-26T03:09:09;10.80;72.40
50548;DHT22;38013;48.810;8.818;2022-12-26T03:12:05;10.80;72.30
50548;DHT22;38013;48.810;8.818;2022-12-26T03:15:08;10.80;72.50
50548;DHT22;38013;48.810;8.818;2022-12-26T03:17:41;10.80;72.30
50548;DHT22;38013;48.810;8.818;2022-12-26T03:20:13;10.80;72.40
50548;DHT22;38013;48.810;8.818;2022-12-26T03:22:58;10.70;72.40
50548;DHT22;38013;48.810;8.818;2022-12-26T03:28:27;10.70;72.80
50548;DHT22;38013;48.810;8.818;2022-12-26T03:30:55;10.70;72.70
50548;DHT22;38013;48.810;8.818;2022-12-26T03:39:17;10.70;73.10
50548;DHT22;38013;48.810;8.818;2022-12-26T03:55:40;10.60;73.10
50548;DHT22;38013;48.810;8.818;2022-12-26T03:59:09;10.60;73.00
50548;DHT22;38013;48.810;8.818;2022-12-26T04:02:03;10.60;73.40
50548;DHT22;38013;48.810;8.818;2022-12-26T04:04:53;10.60;73.00
50548;DHT22;38013;48.810;8.818;2022-12-26T04:07:44;10.60;73.10
50548;DHT22;38013;48.810;8.818;2022-12-26T04:10:37;10.60;73.30
50548;DHT22;38013;48.810;8.818;2022-12-26T04:13:52;10.70;73.50
50548;DHT22;38013;48.810;8.818;2022-12-26T04:16:46;10.60;73.80
50548;DHT22;38013;48.810;8.818;2022-12-26T04:19:40;10.70;73.70
50548;DHT22;38013;48.810;8.818;2022-12-26T04:22:20;10.70;73.60
50548;DHT22;38013;48.810;8.818;2022-12-26T04:28:18;10.70;73.50
50548;DHT22;38013;48.810;8.818;2022-12-26T04:31:20;10.70;73.40
50548;DHT22;38013;48.810;8.818;2022-12-26T04:34:18;10.70;73.60
50548;DHT22;38013;48.810;8.818;2022-12-26T04:37:08;10.70;73.50
50548;DHT22;38013;48.810;8.818;2022-12-26T04:40:00;10.80;73.50
50548;DHT22;38013;48.810;8.818;2022-12-26T04:42:47;10.70;73.30
50548;DHT22;38013;48.810;8.818;2022-12-26T04:45:54;10.70;73.40
50548;DHT22;38013;48.810;8.818;2022-12-26T04:48:21;10.70;73.40
50548;DHT22;38013;48.810;8.818;2022-12-26T04:51:06;10.70;73.50
50548;DHT22;38013;48.810;8.818;2022-12-26T04:53:33;10.70;73.60
50548;DHT22;38013;48.810;8.818;2022-12-26T04:56:00;10.70;73.70
50548;DHT22;38013;48.810;8.818;2022-12-26T04:58:27;10.80;73.80
50548;DHT22;38013;48.810;8.818;2022-12-26T05:00:53;10.70;73.80
50548;DHT22;38013;48.810;8.818;2022-12-26T05:03:40;10.80;73.90
50548;DHT22;38013;48.810;8.818;2022-12-26T05:06:26;10.80;73.90
50548;DHT22;38013;48.810;8.818;2022-12-26T05:09:14;10.80;74.00
50548;DHT22;38013;48.810;8.818;2022-12-26T05:12:07;10.80;74.10
50548;DHT22;38013;48.810;8.818;2022-12-26T05:14:35;10.80;74.30
50548;DHT22;38013;48.810;8.818;2022-12-26T05:17:03;10.90;74.30
50548;DHT22;38013;48.810;8.818;2022-12-26T05:19:50;10.90;74.30
50548;DHT22;38013;48.810;8.818;2022-12-26T05:22:38;10.90;74.30
50548;DHT22;38013;48.810;8.818;2022-12-26T05:25:28;10.90;74.30
50548;DHT22;38013;48.810;8.818;2022-12-26T05:28:16;11.00;74.30
50548;DHT22;38013;48.810;8.818;2022-12-26T05:31:02;11.00;74.20
50548;DHT22;38013;48.810;8.818;2022-12-26T05:33:30;11.10;74.30
50548;DHT22;38013;48.810;8.818;2022-12-26T05:36:16;11.10;74.20
50548;DHT22;38013;48.810;8.818;2022-12-26T05:38:45;11.10;74.20
50548;DHT22;38013;48.810;8.818;2022-12-26T05:41:12;11.20;74.20
50548;DHT22;38013;48.810;8.818;2022-12-26T05:43:38;11.20;73.90
50548;DHT22;38013;48.810;8.818;2022-12-26T05:46:05;11.20;73.70
50548;DHT22;38013;48.810;8.818;2022-12-26T05:48:33;11.20;73.60
50548;DHT22;38013;48.810;8.818;2022-12-26T05:51:00;11.20;73.50
50548;DHT22;38013;48.810;8.818;2022-12-26T05:53:29;11.20;73.40
50548;DHT22;38013;48.810;8.818;2022-12-26T05:56:10;11.20;73.30
50548;DHT22;38013;48.810;8.818;2022-12-26T05:58:38;11.20;73.30
50548;DHT22;38013;48.810;8.818;2022-12-26T06:01:11;11.20;73.20
50548;DHT22;38013;48.810;8.818;2022-12-26T06:03:41;11.20;73.30
50548;DHT22;38013;48.810;8.818;2022-12-26T06:06:10;11.20;73.40
50548;DHT22;38013;48.810;8.818;2022-12-26T06:08:37;11.20;73.50
50548;DHT22;38013;48.810;8.818;2022-12-26T06:11:06;11.20;73.60
50548;DHT22;38013;48.810;8.818;2022-12-26T06:13:35;11.10;73.60
50548;DHT22;38013;48.810;8.818;2022-12-26T06:16:14;11.10;73.70
50548;DHT22;38013;48.810;8.818;2022-12-26T06:18:42;11.20;74.10
50548;DHT22;38013;48.810;8.818;2022-12-26T06:21:15;11.20;73.90
50548;DHT22;38013;48.810;8.818;2022-12-26T06:23:43;11.10;74.00
50548;DHT22;38013;48.810;8.818;2022-12-26T06:26:10;11.20;73.90
50548;DHT22;38013;48.810;8.818;2022-12-26T06:28:39;11.10;73.80
50548;DHT22;38013;48.810;8.818;2022-12-26T06:31:10;11.20;74.00
50548;DHT22;38013;48.810;8.818;2022-12-26T06:33:42;11.10;74.00
50548;DHT22;38013;48.810;8.818;2022-12-26T06:36:13;11.10;74.00
50548;DHT22;38013;48.810;8.818;2022-12-26T06:38:43;11.20;74.10
50548;DHT22;38013;48.810;8.818;2022-12-26T06:41:12;11.20;74.20
50548;DHT22;38013;48.810;8.818;2022-12-26T06:43:42;11.20;74.30
50548;DHT22;38013;48.810;8.818;2022-12-26T06:46:15;11.20;74.20
50548;DHT22;38013;48.810;8.818;2022-12-26T06:48:43;11.20;74.20
50548;DHT22;38013;48.810;8.818;2022-12-26T06:51:12;11.30;74.10
50548;DHT22;38013;48.810;8.818;2022-12-26T06:53:41;11.30;74.10
50548;DHT22;38013;48.810;8.818;2022-12-26T06:56:16;11.30;74.00
50548;DHT22;38013;48.810;8.818;2022-12-26T06:58:50;11.30;74.00
50548;DHT22;38013;48.810;8.818;2022-12-26T07:01:19;11.30;73.90
50548;DHT22;38013;48.810;8.818;2022-12-26T07:03:48;11.40;74.00
50548;DHT22;38013;48.810;8.818;2022-12-26T07:09:06;11.40;74.20
50548;DHT22;38013;48.810;8.818;2022-12-26T07:11:37;11.40;73.90
50548;DHT22;38013;48.810;8.818;2022-12-26T07:14:05;11.40;73.80
50548;DHT22;38013;48.810;8.818;2022-12-26T07:16:37;11.40;73.90
50548;DHT22;38013;48.810;8.818;2022-12-26T07:19:05;11.40;74.00
50548;DHT22;38013;48.810;8.818;2022-12-26T07:21:32;11.40;74.00
50548;DHT22;38013;48.810;8.818;2022-12-26T07:24:06;11.40;74.00
50548;DHT22;38013;48.810;8.818;2022-12-26T07:26:38;11.40;74.10
50548;DHT22;38013;48.810;8.818;2022-12-26T07:29:05;11.40;74.20
50548;DHT22;38013;48.810;8.818;2022-12-26T07:31:32;11.40;74.20
50548;DHT22;38013;48.810;8.818;2022-12-26T07:33:59;11.40;74.30
50548;DHT22;38013;48.810;8.818;2022-12-26T07:36:25;11.40;74.40
50548;DHT22;38013;48.810;8.818;2022-12-26T07:38:52;11.40;74.40
50548;DHT22;38013;48.810;8.818;2022-12-26T07:41:20;11.40;74.50
50548;DHT22;38013;48.810;8.818;2022-12-26T07:44:06;11.40;74.50
50548;DHT22;38013;48.810;8.818;2022-12-26T07:46:36;11.40;74.40
50548;DHT22;38013;48.810;8.818;2022-12-26T07:49:04;11.50;74.50
50548;DHT22;38013;48.810;8.818;2022-12-26T07:51:30;11.50;74.50
50548;DHT22;38013;48.810;8.818;2022-12-26T07:53:57;11.60;75.20
50548;DHT22;38013;48.810;8.818;2022-12-26T07:56:24;11.60;74.50
50548;DHT22;38013;48.810;8.818;2022-12-26T07:58:51;11.60;74.50
50548;DHT22;38013;48.810;8.818;2022-12-26T08:01:18;11.60;74.50
50548;DHT22;38013;48.810;8.818;2022-12-26T08:03:48;11.70;74.50
50548;DHT22;38013;48.810;8.818;2022-12-26T08:06:16;11.70;74.30
50548;DHT22;38013;48.810;8.818;2022-12-26T08:08:45;11.70;74.20
50548;DHT22;38013;48.810;8.818;2022-12-26T08:11:21;11.70;74.20
50548;DHT22;38013;48.810;8.818;2022-12-26T08:13:50;11.70;74.20
50548;DHT22;38013;48.810;8.818;2022-12-26T08:16:18;11.70;74.20
50548;DHT22;38013;48.810;8.818;2022-12-26T08:18:45;11.70;74.20
50548;DHT22;38013;48.810;8.818;2022-12-26T08:21:13;11.70;74.10
50548;DHT22;38013;48.810;8.818;2022-12-26T08:23:40;11.70;74.10
50548;DHT22;38013;48.810;8.818;2022-12-26T08:26:10;11.70;74.00
50548;DHT22;38013;48.810;8.818;2022-12-26T08:28:40;11.70;74.10
50548;DHT22;38013;48.810;8.818;2022-12-26T08:31:09;11.70;74.10
50548;DHT22;38013;48.810;8.818;2022-12-26T08:33:38;11.70;74.20
50548;DHT22;38013;48.810;8.818;2022-12-26T08:36:07;11.70;74.20
50548;DHT22;38013;48.810;8.818;2022-12-26T08:38:36;11.80;74.30
50548;DHT22;38013;48.810;8.818;2022-12-26T08:41:03;11.80;74.30
50548;DHT22;38013;48.810;8.818;2022-12-26T08:43:30;11.80;74.40
50548;DHT22;38013;48.810;8.818;2022-12-26T08:46:19;11.80;74.40
50548;DHT22;38013;48.810;8.818;2022-12-26T08:48:47;11.80;74.40
50548;DHT22;38013;48.810;8.818;2022-12-26T08:51:24;11.80;74.40
50548;DHT22;38013;48.810;8.818;2022-12-26T08:53:52;11.90;74.90
50548;DHT22;38013;48.810;8.818;2022-12-26T08:56:22;11.80;74.60
50548;DHT22;38013;48.810;8.818;2022-12-26T08:58:51;11.80;74.70
50548;DHT22;38013;48.810;8.818;2022-12-26T09:01:23;11.90;74.70
50548;DHT22;38013;48.810;8.818;2022-12-26T09:03:53;11.90;74.80
50548;DHT22;38013;48.810;8.818;2022-12-26T09:06:20;11.90;74.80
50548;DHT22;38013;48.810;8.818;2022-12-26T09:08:48;11.90;74.90
50548;DHT22;38013;48.810;8.818;2022-12-26T09:11:18;12.00;74.90
50548;DHT22;38013;48.810;8.818;2022-12-26T09:13:47;12.00;75.00
50548;DHT22;38013;48.810;8.818;2022-12-26T09:16:20;11.90;75.00
50548;DHT22;38013;48.810;8.818;2022-12-26T09:19:15;11.90;75.10
50548;DHT22;38013;48.810;8.818;2022-12-26T09:21:43;11.90;75.00
50548;DHT22;38013;48.810;8.818;2022-12-26T09:24:13;11.90;75.10
50548;DHT22;38013;48.810;8.818;2022-12-26T09:26:42;11.80;75.20
50548;DHT22;38013;48.810;8.818;2022-12-26T09:29:13;11.80;75.30
50548;DHT22;38013;48.810;8.818;2022-12-26T09:31:39;11.80;75.70
50548;DHT22;38013;48.810;8.818;2022-12-26T09:34:07;11.80;75.80
50548;DHT22;38013;48.810;8.818;2022-12-26T09:36:36;11.80;75.90
50548;DHT22;38013;48.810;8.818;2022-12-26T09:39:04;11.80;76.00
50548;DHT22;38013;48.810;8.818;2022-12-26T09:44:46;11.70;76.50
50548;DHT22;38013;48.810;8.818;2022-12-26T09:50:19;11.70;77.30
50548;DHT22;38013;48.810;8.818;2022-12-26T09:52:57;11.70;77.50
50548;DHT22;38013;48.810;8.818;2022-12-26T09:55:55;11.70;76.80
50548;DHT22;38013;48.810;8.818;2022-12-26T09:58:34;11.70;77.40
50548;DHT22;38013;48.810;8.818;2022-12-26T10:01:15;11.70;77.80
50548;DHT22;38013;48.810;8.818;2022-12-26T10:03:56;11.70;77.30
50548;DHT22;38013;48.810;8.818;2022-12-26T10:06:26;11.70;77.10
50548;DHT22;38013;48.810;8.818;2022-12-26T10:14:38;11.80;78.20
50548;DHT22;38013;48.810;8.818;2022-12-26T10:23:44;11.80;78.10
50548;DHT22;38013;48.810;8.818;2022-12-26T10:26:38;11.80;77.90
50548;DHT22;38013;48.810;8.818;2022-12-26T10:36:50;12.00;77.40
50548;DHT22;38013;48.810;8.818;2022-12-26T10:39:27;12.00;77.60
50548;DHT22;38013;48.810;8.818;2022-12-26T10:42:10;12.10;77.00
50548;DHT22;38013;48.810;8.818;2022-12-26T10:44:44;12.00;77.10
50548;DHT22;38013;48.810;8.818;2022-12-26T10:47:19;12.10;77.00
50548;DHT22;38013;48.810;8.818;2022-12-26T10:49:49;12.00;77.10
50548;DHT22;38013;48.810;8.818;2022-12-26T10:52:18;12.10;77.10
50548;DHT22;38013;48.810;8.818;2022-12-26T10:54:53;12.10;77.10
50548;DHT22;38013;48.810;8.818;2022-12-26T10:57:41;12.10;77.30
50548;DHT22;38013;48.810;8.818;2022-12-26T11:00:28;12.10;77.10
50548;DHT22;38013;48.810;8.818;2022-12-26T11:03:13;12.20;77.30
50548;DHT22;38013;48.810;8.818;2022-12-26T11:05:50;12.20;77.40
50548;DHT22;38013;48.810;8.818;2022-12-26T11:08:45;12.20;77.30
50548;DHT22;38013;48.810;8.818;2022-12-26T11:11:31;12.30;77.30
50548;DHT22;38013;48.810;8.818;2022-12-26T11:17:08;12.30;77.20
50548;DHT22;38013;48.810;8.818;2022-12-26T11:19:49;12.30;77.10
50548;DHT22;38013;48.810;8.818;2022-12-26T11:22:35;12.30;77.00
50548;DHT22;38013;48.810;8.818;2022-12-26T11:25:16;12.30;76.60
50548;DHT22;38013;48.810;8.818;2022-12-26T11:27:50;12.30;77.20
50548;DHT22;38013;48.810;8.818;2022-12-26T11:30:29;12.30;77.00
50548;DHT22;38013;48.810;8.818;2022-12-26T11:33:09;12.30;77.10
50548;DHT22;38013;48.810;8.818;2022-12-26T11:38:57;12.40;76.80
50548;DHT22;38013;48.810;8.818;2022-12-26T11:46:52;12.40;76.50
50548;DHT22;38013;48.810;8.818;2022-12-26T11:49:32;12.30;76.50
50548;DHT22;38013;48.810;8.818;2022-12-26T11:52:30;12.40;76.40
50548;DHT22;38013;48.810;8.818;2022-12-26T11:54:58;12.30;76.30
50548;DHT22;38013;48.810;8.818;2022-12-26T11:57:32;12.30;76.30
50548;DHT22;38013;48.810;8.818;2022-12-26T12:00:19;12.30;76.60
50548;DHT22;38013;48.810;8.818;2022-12-26T12:02:50;12.30;76.70
50548;DHT22;38013;48.810;8.818;2022-12-26T12:05:51;12.40;76.70
50548;DHT22;38013;48.810;8.818;2022-12-26T12:08:45;12.40;77.00
50548;DHT22;38013;48.810;8.818;2022-12-26T12:11:24;12.40;78.10
50548;DHT22;38013;48.810;8.818;2022-12-26T12:19:49;12.50;78.70
50548;DHT22;38013;48.810;8.818;2022-12-26T12:32:06;13.00;76.60
50548;DHT22;38013;48.810;8.818;2022-12-26T12:34:52;13.10;75.70
50548;DHT22;38013;48.810;8.818;2022-12-26T12:40:39;13.10;74.80
50548;DHT22;38013;48.810;8.818;2022-12-26T12:52:18;13.00;75.20
50548;DHT22;38013;48.810;8.818;2022-12-26T12:55:17;12.90;75.00
50548;DHT22;38013;48.810;8.818;2022-12-26T12:58:24;12.90;75.00
50548;DHT22;38013;48.810;8.818;2022-12-26T13:00:56;12.90;75.20
50548;DHT22;38013;48.810;8.818;2022-12-26T13:03:32;12.90;75.20
50548;DHT22;38013;48.810;8.818;2022-12-26T13:06:39;12.80;75.20
50548;DHT22;38013;48.810;8.818;2022-12-26T13:09:48;12.80;75.40
50548;DHT22;38013;48.810;8.818;2022-12-26T13:12:21;12.80;75.20
50548;DHT22;38013;48.810;8.818;2022-12-26T13:14:56;12.80;75.20
50548;DHT22;38013;48.810;8.818;2022-12-26T13:20:14;12.80;75.20
50548;DHT22;38013;48.810;8.818;2022-12-26T13:22:46;12.80;75.40
50548;DHT22;38013;48.810;8.818;2022-12-26T13:25:42;12.80;75.30
50548;DHT22;38013;48.810;8.818;2022-12-26T13:28:16;12.80;75.10
50548;DHT22;38013;48.810;8.818;2022-12-26T13:30:55;12.80;75.10
50548;DHT22;38013;48.810;8.818;2022-12-26T13:33:22;12.80;75.20
50548;DHT22;38013;48.810;8.818;2022-12-26T13:35:56;12.90;75.20
50548;DHT22;38013;48.810;8.818;2022-12-26T13:39:12;12.80;75.00
50548;DHT22;38013;48.810;8.818;2022-12-26T13:41:49;12.90;74.90
50548;DHT22;38013;48.810;8.818;2022-12-26T13:44:39;12.90;74.90
50548;DHT22;38013;48.810;8.818;2022-12-26T13:47:29;12.90;74.90
50548;DHT22;38013;48.810;8.818;2022-12-26T13:55:54;13.00;74.60
50548;DHT22;38013;48.810;8.818;2022-12-26T14:05:05;13.00;74.30
50548;DHT22;38013;48.810;8.818;2022-12-26T14:07:55;13.00;74.40
50548;DHT22;38013;48.810;8.818;2022-12-26T14:10:52;13.00;74.40
50548;DHT22;38013;48.810;8.818;2022-12-26T14:14:07;13.00;74.10
50548;DHT22;38013;48.810;8.818;2022-12-26T14:16:38;13.00;74.30
50548;DHT22;38013;48.810;8.818;2022-12-26T14:19:44;13.00;74.30
50548;DHT22;38013;48.810;8.818;2022-12-26T14:23:01;13.00;74.10
50548;DHT22;38013;48.810;8.818;2022-12-26T14:28:48;13.00;74.00
50548;DHT22;38013;48.810;8.818;2022-12-26T14:53:29;12.90;74.20
50548;DHT22;38013;48.810;8.818;2022-12-26T14:56:01;12.90;74.20
50548;DHT22;38013;48.810;8.818;2022-12-26T15:04:06;12.80;74.00
50548;DHT22;38013;48.810;8.818;2022-12-26T15:16:37;12.80;74.20
50548;DHT22;38013;48.810;8.818;2022-12-26T15:22:55;12.70;74.20
50548;DHT22;38013;48.810;8.818;2022-12-26T15:31:46;12.70;74.30
50548;DHT22;38013;48.810;8.818;2022-12-26T15:39:48;12.70;74.30
50548;DHT22;38013;48.810;8.818;2022-12-26T15:42:40;12.60;74.30
50548;DHT22;38013;48.810;8.818;2022-12-26T15:45:43;12.60;74.30
50548;DHT22;38013;48.810;8.818;2022-12-26T15:51:10;12.60;74.60
50548;DHT22;38013;48.810;8.818;2022-12-26T15:54:17;12.60;74.40
50548;DHT22;38013;48.810;8.818;2022-12-26T15:57:25;12.50;74.50
50548;DHT22;38013;48.810;8.818;2022-12-26T16:00:14;12.50;74.50
50548;DHT22;38013;48.810;8.818;2022-12-26T16:02:55;12.50;74.30
50548;DHT22;38013;48.810;8.818;2022-12-26T16:05:48;12.50;74.30
50548;DHT22;38013;48.810;8.818;2022-12-26T16:08:42;12.50;74.30
50548;DHT22;38013;48.810;8.818;2022-12-26T16:11:20;12.50;74.30
50548;DHT22;38013;48.810;8.818;2022-12-26T16:14:00;12.50;74.40
50548;DHT22;38013;48.810;8.818;2022-12-26T16:16:34;12.50;74.40
50548;DHT22;38013;48.810;8.818;2022-12-26T16:19:20;12.40;74.50
50548;DHT22;38013;48.810;8.818;2022-12-26T16:22:00;12.50;74.50
50548;DHT22;38013;48.810;8.818;2022-12-26T16:24:48;12.40;74.60
50548;DHT22;38013;48.810;8.818;2022-12-26T16:27:21;12.40;74.30
50548;DHT22;38013;48.810;8.818;2022-12-26T16:30:01;12.40;74.40
50548;DHT22;38013;48.810;8.818;2022-12-26T16:32:39;12.40;74.40
50548;DHT22;38013;48.810;8.818;2022-12-26T16:35:16;12.40;74.40
50548;DHT22;38013;48.810;8.818;2022-12-26T16:37:45;12.40;74.60
50548;DHT22;38013;48.810;8.818;2022-12-26T16:40:28;12.50;74.70
50548;DHT22;38013;48.810;8.818;2022-12-26T16:45:33;12.40;74.70
50548;DHT22;38013;48.810;8.818;2022-12-26T16:48:07;12.40;74.70
50548;DHT22;38013;48.810;8.818;2022-12-26T16:50:43;12.40;74.60
50548;DHT22;38013;48.810;8.818;2022-12-26T16:53:14;12.40;74.70
50548;DHT22;38013;48.810;8.818;2022-12-26T16:58:25;12.30;74.70
50548;DHT22;38013;48.810;8.818;2022-12-26T17:01:12;12.30;74.90
50548;DHT22;38013;48.810;8.818;2022-12-26T17:03:49;12.30;75.10
50548;DHT22;38013;48.810;8.818;2022-12-26T17:06:28;12.30;75.20
50548;DHT22;38013;48.810;8.818;2022-12-26T17:09:07;12.30;75.40
50548;DHT22;38013;48.810;8.818;2022-12-26T17:11:52;12.30;75.40
50548;DHT22;38013;48.810;8.818;2022-12-26T17:14:27;12.30;75.40
50548;DHT22;38013;48.810;8.818;2022-12-26T17:16:59;12.30;75.50
50548;DHT22;38013;48.810;8.818;2022-12-26T17:19:36;12.30;75.50
50548;DHT22;38013;48.810;8.818;2022-12-26T17:22:30;12.30;75.50
50548;DHT22;38013;48.810;8.818;2022-12-26T17:28:19;12.20;76.30
50548;DHT22;38013;48.810;8.818;2022-12-26T17:30:37;12.20;76.00
50548;DHT22;38013;48.810;8.818;2022-12-26T17:33:11;12.10;76.10
50548;DHT22;38013;48.810;8.818;2022-12-26T17:35:43;12.10;76.50
50548;DHT22;38013;48.810;8.818;2022-12-26T17:38:33;12.00;76.20
50548;DHT22;38013;48.810;8.818;2022-12-26T17:41:02;12.00;76.10
50548;DHT22;38013;48.810;8.818;2022-12-26T17:43:34;12.00;76.20
50548;DHT22;38013;48.810;8.818;2022-12-26T17:46:06;11.90;76.10
50548;DHT22;38013;48.810;8.818;2022-12-26T17:48:34;11.90;76.00
50548;DHT22;38013;48.810;8.818;2022-12-26T17:51:06;11.80;75.90
50548;DHT22;38013;48.810;8.818;2022-12-26T17:53:36;11.70;76.10
50548;DHT22;38013;48.810;8.818;2022-12-26T17:56:15;11.70;76.20
50548;DHT22;38013;48.810;8.818;2022-12-26T17:58:46;11.60;76.30
50548;DHT22;38013;48.810;8.818;2022-12-26T18:01:13;11.50;76.40
50548;DHT22;38013;48.810;8.818;2022-12-26T18:03:47;11.50;76.60
50548;DHT22;38013;48.810;8.818;2022-12-26T18:06:14;11.40;76.80
50548;DHT22;38013;48.810;8.818;2022-12-26T18:08:43;11.30;76.90
50548;DHT22;38013;48.810;8.818;2022-12-26T18:11:12;11.30;77.10
50548;DHT22;38013;48.810;8.818;2022-12-26T18:13:40;11.20;77.30
50548;DHT22;38013;48.810;8.818;2022-12-26T18:16:13;11.20;77.30
50548;DHT22;38013;48.810;8.818;2022-12-26T18:18:43;11.20;77.60
50548;DHT22;38013;48.810;8.818;2022-12-26T18:21:12;11.10;77.50
50548;DHT22;38013;48.810;8.818;2022-12-26T18:23:41;11.00;77.20
50548;DHT22;38013;48.810;8.818;2022-12-26T18:26:34;10.90;76.90
50548;DHT22;38013;48.810;8.818;2022-12-26T18:29:01;10.80;76.90
50548;DHT22;38013;48.810;8.818;2022-12-26T18:31:28;10.60;76.50
50548;DHT22;38013;48.810;8.818;2022-12-26T18:33:57;10.50;76.70
50548;DHT22;38013;48.810;8.818;2022-12-26T18:36:29;10.30;76.90
50548;DHT22;38013;48.810;8.818;2022-12-26T18:38:58;10.20;77.50
50548;DHT22;38013;48.810;8.818;2022-12-26T18:41:25;10.10;77.50
50548;DHT22;38013;48.810;8.818;2022-12-26T18:43:52;9.90;77.70
50548;DHT22;38013;48.810;8.818;2022-12-26T18:46:24;9.80;78.00
50548;DHT22;38013;48.810;8.818;2022-12-26T18:48:52;9.80;78.40
50548;DHT22;38013;48.810;8.818;2022-12-26T18:51:20;9.70;78.20
50548;DHT22;38013;48.810;8.818;2022-12-26T18:53:47;9.70;78.20
50548;DHT22;38013;48.810;8.818;2022-12-26T18:56:16;9.70;78.20
50548;DHT22;38013;48.810;8.818;2022-12-26T18:58:44;9.60;78.30
50548;DHT22;38013;48.810;8.818;2022-12-26T19:01:13;9.60;78.90
50548;DHT22;38013;48.810;8.818;2022-12-26T19:03:42;9.60;78.20
50548;DHT22;38013;48.810;8.818;2022-12-26T19:06:22;9.60;78.50
50548;DHT22;38013;48.810;8.818;2022-12-26T19:08:50;9.60;79.10
50548;DHT22;38013;48.810;8.818;2022-12-26T19:11:17;9.50;79.00
50548;DHT22;38013;48.810;8.818;2022-12-26T19:13:44;9.50;79.10
50548;DHT22;38013;48.810;8.818;2022-12-26T19:16:11;9.60;79.40
50548;DHT22;38013;48.810;8.818;2022-12-26T19:18:38;9.60;79.60
50548;DHT22;38013;48.810;8.818;2022-12-26T19:21:10;9.60;80.10
50548;DHT22;38013;48.810;8.818;2022-12-26T19:23:38;9.60;80.30
50548;DHT22;38013;48.810;8.818;2022-12-26T19:26:10;9.70;80.60
50548;DHT22;38013;48.810;8.818;2022-12-26T19:28:38;9.70;81.00
50548;DHT22;38013;48.810;8.818;2022-12-26T19:31:10;9.70;80.90
50548;DHT22;38013;48.810;8.818;2022-12-26T19:33:38;9.80;81.10
50548;DHT22;38013;48.810;8.818;2022-12-26T19:36:05;9.70;80.70
50548;DHT22;38013;48.810;8.818;2022-12-26T19:38:33;9.80;80.70
50548;DHT22;38013;48.810;8.818;2022-12-26T19:41:13;9.70;80.30
50548;DHT22;38013;48.810;8.818;2022-12-26T19:43:40;9.80;80.20
50548;DHT22;38013;48.810;8.818;2022-12-26T19:46:09;9.70;79.80